Thunder radar more information blitzortung!


Radar de pluja more information rain snow radar


Visita la nostra xarxa de llocs de meteo:

Template documentation
and downloads

And another site



No particular awareness of the weather is required.    There are no Weather-warnings

Pagina Historial Weather Underground text

Diari Resum Agost 24, 2017 Unitats:  Imperial    Mètric   Tant
« Previous Dia
SegĂźent Dia »
Diari Setmana Mensual Anual Personalitzada
  Maxima: Minima: Media:
Temperatura: 93.9 °F 69.1 °F 81.5 °F
Punt de rosada: 65.1 °F 47.1 °F 56.1 °F
Humitat: 75 % 25 % 45 %
Wind Speed: 11.5 mph 0 mph 3.6 mph
RĂ fegues de vent: 11.5 mph - -
Vent:- - SW
Pression baro: 30 in 30 in -
Precipitacions: 0 in    
Historical Graphs
 
 
Dades de taula per Agost 24, 2017
Temps Temperatura Punt de rosada Pression baro Vent Wind Speed RĂ fegues de vent Humitat Rainfall Rate (Hourly)
00:00 71.4 °F 61.9 °F 30 in WSW 3 mph 6 mph 72 % 0 in
00:02 73.8 °F 63.3 °F 30 in SSW 2.4 mph 2.4 mph 70 % 0 in
00:07 73.6 °F 63.7 °F 30 in SW 1.4 mph 1.4 mph 71 % 0 in
00:10 71.8 °F 59.7 °F 30 in WSW 1 mph 3 mph 66 % 0 in
00:20 71.8 °F 59.4 °F 30 in Calm   2 mph 65 % 0 in
00:30 71.8 °F 58.1 °F 30 in Calm   1 mph 62 % 0 in
00:40 71.4 °F 59 °F 30 in SW 2 mph 5 mph 65 % 0 in
00:50 71.1 °F 58.6 °F 30 in SW 2 mph 4 mph 65 % 0 in
01:00 71.4 °F 59 °F 30 in WSW 3 mph 6 mph 65 % 0 in
01:10 71.6 °F 58.3 °F 30 in SW 1 mph 3 mph 63 % 0 in
01:20 71.6 °F 58.3 °F 30 in Calm   3 mph 63 % 0 in
01:30 71.2 °F 58.5 °F 30 in WSW 1 mph 2 mph 64 % 0 in
01:40 71.1 °F 58.3 °F 30 in Calm   2 mph 64 % 0 in
01:50 71.1 °F 57.7 °F 30 in SW 1 mph 2 mph 63 % 0 in
02:00 70.7 °F 57.6 °F 30 in Calm   2 mph 63 % 0 in
02:10 70.9 °F 57.7 °F 30 in SW 3 mph 3 mph 63 % 0 in
02:20 70.7 °F 57.6 °F 30 in WSW 1 mph 3 mph 63 % 0 in
02:30 70.9 °F 57.2 °F 30 in West 1 mph 2 mph 62 % 0 in
02:40 70.3 °F 56.7 °F 30 in SW 2 mph 3 mph 62 % 0 in
02:50 70.2 °F 57 °F 30 in SW 1 mph 2 mph 63 % 0 in
03:00 70.2 °F 57 °F 30 in Calm   2 mph 63 % 0 in
03:10 70.5 °F 56.8 °F 30 in SSW 1 mph 2 mph 62 % 0 in
03:20 70.5 °F 56.8 °F 30 in West 1 mph 1 mph 62 % 0 in
03:30 71.1 °F 57.4 °F 30 in WNW 1 mph 2 mph 62 % 0 in
03:40 71.2 °F 57 °F 30 in North 1 mph 2 mph 61 % 0 in
03:50 70.9 °F 56.8 °F 30 in NE 1 mph 2 mph 61 % 0 in
04:00 70.9 °F 56.8 °F 30 in ENE 2 mph 2 mph 61 % 0 in
04:10 71.1 °F 56.8 °F 30 in WSW 1 mph 3 mph 61 % 0 in
04:20 71.4 °F 57.4 °F 30 in WSW 1 mph 3 mph 61 % 0 in
04:40 73 °F 58.3 °F 30 in Calm   2 mph 60 % 0 in
04:50 73.9 °F 58.6 °F 30 in SW 1 mph 1 mph 59 % 0 in
05:00 73.8 °F 58.1 °F 30 in Calm   2 mph 58 % 0 in
09:00 88.5 °F 63.1 °F 30 in SW 3 mph 6 mph 43 % 0 in
09:10 89.1 °F 63 °F 30 in SW 3 mph 8 mph 42 % 0 in
09:20 90.3 °F 64 °F 30 in SW 2 mph 4 mph 42 % 0 in
09:30 89.8 °F 63 °F 30 in SW 6 mph 6 mph 41 % 0 in
09:40 90.1 °F 62.6 °F 30 in SW 5 mph 8 mph 40 % 0 in
09:50 91.8 °F 62.4 °F 30 in SW 3 mph 5 mph 38 % 0 in
10:04 73 °F 61 °F 30 in SSW 2.3 mph 2.3 mph 66 % 0 in
10:09 73 °F 61 °F 30 in ESE 1.2 mph   66 % 0 in
10:14 73.4 °F 61.3 °F 30 in WNW 1.2 mph   66 % 0 in
10:19 73.8 °F 61.7 °F 30 in SSE 2.3 mph 2.3 mph 66 % 0 in
10:24 74.5 °F 62.4 °F 30 in SSE 2.6 mph 2.6 mph 66 % 0 in
10:29 75 °F 62.4 °F 30 in SSE 1.6 mph 1.6 mph 65 % 0 in
10:34 75.4 °F 61.9 °F 30 in SSE 2.3 mph 2.3 mph 63 % 0 in
10:39 75.4 °F 61.5 °F 30 in NNE 2.9 mph 2.9 mph 62 % 0 in
10:49 74.3 °F 62.6 °F 30 in West 3.5 mph 3.5 mph 67 % 0 in
10:54 74.1 °F 63 °F 30 in NNW 1.4 mph 1.4 mph 68 % 0 in
10:59 74.3 °F 63.9 °F 30 in East 1.6 mph 1.6 mph 70 % 0 in
11:04 75.4 °F 64 °F 30 in WNW 2.3 mph 2.3 mph 68 % 0 in
11:09 76.6 °F 64.4 °F 30 in NNE 4.6 mph 4.6 mph 66 % 0 in
11:14 77.7 °F 64 °F 30 in WNW 3.6 mph 3.6 mph 63 % 0 in
11:52 82.6 °F 64.2 °F 30 in WSW 3.5 mph 3.5 mph 54 % 0 in
11:57 83.7 °F 64.8 °F 30 in West 5.8 mph 5.8 mph 53 % 0 in
12:02 84.2 °F 64.8 °F 30 in West 4.6 mph 4.7 mph 52 % 0 in
12:07 84.4 °F 64.2 °F 30 in SW 5.8 mph 5.8 mph 51 % 0 in
12:12 84.7 °F 64.6 °F 30 in West 4.6 mph 4.6 mph 51 % 0 in
12:17 85.5 °F 64.8 °F 30 in WSW 4.6 mph 4.6 mph 50 % 0 in
12:18 85.5 °F 64.8 °F 30 in West 4.6 mph 4.6 mph 50 % 0 in
12:23 85.6 °F 64.9 °F 30 in WSW 5.8 mph 5.8 mph 50 % 0 in
12:28 86 °F 64.6 °F 30 in SW 6.4 mph 6.4 mph 49 % 0 in
12:33 86.7 °F 64.8 °F 30 in SW 3.5 mph 3.5 mph 48 % 0 in
12:38 88 °F 65.1 °F 30 in WSW 4.6 mph 4.6 mph 47 % 0 in
12:43 88.3 °F 64.9 °F 30 in SW 4.6 mph 4.6 mph 46 % 0 in
14:55 91.4 °F 59.2 °F 30 in South 10.4 mph 10.4 mph 34 % 0 in
15:00 91.8 °F 60.3 °F 30 in WSW 5.8 mph 5.8 mph 35 % 0 in
15:05 92.1 °F 60.4 °F 30 in South 5.8 mph 5.8 mph 35 % 0 in
15:10 93.2 °F 61.5 °F 30 in West 3.1 mph 3.3 mph 35 % 0 in
15:15 93 °F 58.8 °F 30 in South 10.4 mph 10.4 mph 32 % 0 in
15:20 93.4 °F 60.1 °F 30 in WSW 5.8 mph 6.4 mph 33 % 0 in
15:25 92.3 °F 59 °F 30 in SW 8.1 mph 8.1 mph 33 % 0 in
15:30 92.7 °F 59.4 °F 30 in SW 4.6 mph 4.6 mph 33 % 0 in
15:35 93.9 °F 59.5 °F 30 in SSW 4.9 mph 4.9 mph 32 % 0 in
15:40 93.2 °F 56.1 °F 30 in SW 10.4 mph 10.4 mph 29 % 0 in
15:45 92.7 °F 54.9 °F 30 in SE 10.4 mph 10.4 mph 28 % 0 in
15:50 92.7 °F 54.9 °F 30 in WSW 11.5 mph 11.5 mph 28 % 0 in
15:55 92.8 °F 54.9 °F 30 in South 6.9 mph 6.9 mph 28 % 0 in
16:00 93.4 °F 55.4 °F 30 in SSW 7.1 mph 7.1 mph 28 % 0 in
16:05 92.5 °F 54.7 °F 30 in SSW 10.4 mph 10.4 mph 28 % 0 in
16:10 92.5 °F 54.7 °F 30 in SW 5.8 mph 6.7 mph 28 % 0 in
16:11 92.5 °F 54.7 °F 30 in South 11.5 mph 11.5 mph 28 % 0 in
16:16 91 °F 52.3 °F 30 in SW 6.9 mph 6.9 mph 27 % 0 in
16:21 91.9 °F 54.1 °F 30 in WSW 5.8 mph 5.8 mph 28 % 0 in
16:26 91.8 °F 53.1 °F 30 in SSW 6.2 mph 6.2 mph 27 % 0 in
16:31 92.5 °F 53.6 °F 30 in SSW 5.8 mph 5.8 mph 27 % 0 in
16:36 93.7 °F 54.7 °F 30 in SW 2.9 mph 2.9 mph 27 % 0 in
16:41 93.6 °F 54.7 °F 30 in SSW 6.9 mph 6.9 mph 27 % 0 in
16:46 93 °F 54.1 °F 30 in SW 8.1 mph 8.1 mph 27 % 0 in
16:51 92.8 °F 54 °F 30 in WSW 7.8 mph 7.8 mph 27 % 0 in
16:56 92.8 °F 54.9 °F 30 in SSW 8.1 mph 8.1 mph 28 % 0 in
17:01 92.5 °F 54.7 °F 30 in SW 4.6 mph 4.6 mph 28 % 0 in
17:06 92.3 °F 54.5 °F 30 in SW 5.6 mph 5.6 mph 28 % 0 in
17:11 92.1 °F 53.2 °F 30 in SW 5.8 mph 5.8 mph 27 % 0 in
17:16 92.7 °F 53.8 °F 30 in South 6.9 mph 6.9 mph 27 % 0 in
17:21 92.7 °F 52.9 °F 30 in SW 6.9 mph 6.9 mph 26 % 0 in
17:26 92.3 °F 53.4 °F 30 in SW 5.8 mph 5.8 mph 27 % 0 in
17:31 92.3 °F 53.4 °F 30 in SW 4.7 mph 4.7 mph 27 % 0 in
17:36 92.5 °F 53.6 °F 30 in SSE 3.5 mph 3.6 mph 27 % 0 in
17:41 92.8 °F 54 °F 30 in SSW 5.8 mph 5.8 mph 27 % 0 in
17:46 91.8 °F 52 °F 30 in SSW 5.8 mph 5.8 mph 26 % 0 in
17:51 91.6 °F 51.8 °F 30 in SSW 6.9 mph 6.9 mph 26 % 0 in
17:56 91.8 °F 52 °F 30 in SSW 11.5 mph 11.5 mph 26 % 0 in
18:01 91.6 °F 51.8 °F 30 in WSW 6.4 mph 6.4 mph 26 % 0 in
18:06 91.4 °F 51.6 °F 30 in SW 5.8 mph 6.4 mph 26 % 0 in
18:11 91 °F 51.4 °F 30 in SW 5.8 mph 5.8 mph 26 % 0 in
18:16 91.2 °F 51.4 °F 30 in SSW 6.9 mph 6.9 mph 26 % 0 in
18:21 90.5 °F 49.8 °F 30 in WSW 5.8 mph 5.8 mph 25 % 0 in
18:26 91 °F 51.4 °F 30 in SSW 5.8 mph 5.8 mph 26 % 0 in
18:31 90.5 °F 49.8 °F 30 in SW 8.7 mph 8.7 mph 25 % 0 in
18:36 89.6 °F 49.1 °F 30 in SW 5.8 mph 5.8 mph 25 % 0 in
18:41 89.6 °F 49.1 °F 30 in SW 5.8 mph 5.8 mph 25 % 0 in
18:46 89.6 °F 49.1 °F 30 in WSW 5.8 mph 5.8 mph 25 % 0 in
18:51 89.1 °F 48.7 °F 30 in WNW 6.9 mph 6.9 mph 25 % 0 in
18:56 89.1 °F 48.7 °F 30 in SW 6.9 mph 6.9 mph 25 % 0 in
19:01 88.9 °F 48.6 °F 30 in SW 6.9 mph 6.9 mph 25 % 0 in
19:06 88.3 °F 49.1 °F 30 in WSW 9.4 mph 9.4 mph 26 % 0 in
19:11 87.8 °F 48.6 °F 30 in SW 3.3 mph 3.3 mph 26 % 0 in
19:16 87.6 °F 48.6 °F 30 in SSW 6.9 mph 6.9 mph 26 % 0 in
19:21 87.1 °F 48 °F 30 in SW 5.8 mph 5.8 mph 26 % 0 in
19:26 86.5 °F 47.7 °F 30 in SW 5.8 mph 5.8 mph 26 % 0 in
19:31 86 °F 47.1 °F 30 in WSW 5.8 mph 5.8 mph 26 % 0 in
19:41 85.3 °F 47.5 °F 30 in SW 5.8 mph 5.8 mph 27 % 0 in
19:46 84.9 °F 47.1 °F 30 in SW 4.7 mph 4.7 mph 27 % 0 in
19:51 84.6 °F 47.8 °F 30 in SW 4.7 mph 4.7 mph 28 % 0 in
19:56 84.2 °F 47.7 °F 30 in WSW 4.6 mph 4.6 mph 28 % 0 in
20:01 83.8 °F 48.2 °F 30 in SW 6.9 mph 6.9 mph 29 % 0 in
20:06 83.5 °F 47.8 °F 30 in SW 6.9 mph 6.9 mph 29 % 0 in
20:11 82.9 °F 47.5 °F 30 in South 3.5 mph 3.5 mph 29 % 0 in
20:16 82.6 °F 47.1 °F 30 in SW 5.8 mph 5.8 mph 29 % 0 in
20:21 82.2 °F 47.7 °F 30 in WSW 4.6 mph 4.6 mph 30 % 0 in
20:26 81.9 °F 47.5 °F 30 in SW 2.6 mph 2.6 mph 30 % 0 in
20:31 81.3 °F 47.8 °F 30 in WSW 3.5 mph 3.5 mph 31 % 0 in
20:36 81 °F 48.4 °F 30 in SW 3.5 mph 3.5 mph 32 % 0 in
20:41 80.6 °F 48 °F 30 in SSW 3.1 mph 3.1 mph 32 % 0 in
20:46 80.2 °F 49.3 °F 30 in SW 3.5 mph 3.5 mph 34 % 0 in
20:51 79.7 °F 49.6 °F 30 in WSW 2.3 mph 2.3 mph 35 % 0 in
20:56 79.5 °F 50.2 °F 30 in WSW 2.3 mph 2.3 mph 36 % 0 in
21:01 79.2 °F 49.8 °F 30 in SW 2.3 mph 2.3 mph 36 % 0 in
21:06 78.8 °F 50.4 °F 30 in SW 2.3 mph 2.3 mph 37 % 0 in
21:11 78.6 °F 50.2 °F 30 in WSW 2.4 mph 2.4 mph 37 % 0 in
21:12 78.6 °F 50.2 °F 30 in WSW 2.6 mph 2.6 mph 37 % 0 in
21:17 78.4 °F 50.7 °F 30 in WSW 2.4 mph 2.4 mph 38 % 0 in
21:22 78.3 °F 51.3 °F 30 in West 4.6 mph 4.6 mph 39 % 0 in
21:27 77.9 °F 51.6 °F 30 in SW 2.3 mph 2.3 mph 40 % 0 in
21:32 77.5 °F 52 °F 30 in WSW 2.3 mph 2.3 mph 41 % 0 in
21:37 77.4 °F 51.8 °F 30 in WSW 2.4 mph 2.4 mph 41 % 0 in
21:42 77.4 °F 51.8 °F 30 in West 2 mph 2.2 mph 41 % 0 in
21:47 77.2 °F 52.3 °F 30 in WSW 2.3 mph 2.3 mph 42 % 0 in
21:52 77 °F 52.2 °F 30 in SW 2.3 mph 2.3 mph 42 % 0 in
21:57 76.8 °F 53.2 °F 30 in WSW 2.3 mph 2.3 mph 44 % 0 in
22:02 76.8 °F 54 °F 30 in WSW 1.2 mph 1.2 mph 45 % 0 in
22:07 76.8 °F 54 °F 30 in WSW 2.4 mph 2.4 mph 45 % 0 in
22:12 76.8 °F 54.5 °F 30 in WSW 2.3 mph 2.3 mph 46 % 0 in
22:17 76.8 °F 55 °F 30 in WSW 2.3 mph 2.3 mph 47 % 0 in
22:22 76.6 °F 55.6 °F 30 in SW 1.2 mph   48 % 0 in
22:27 76.5 °F 55.9 °F 30 in SW 1.2 mph 1.2 mph 49 % 0 in
22:32 76.3 °F 55.8 °F 30 in Calm     49 % 0 in
22:37 76.1 °F 56.1 °F 30 in WSW 1.2 mph   50 % 0 in
22:42 75.9 °F 56.5 °F 30 in Calm     51 % 0 in
22:47 75.7 °F 56.3 °F 30 in WNW 1.2 mph 1.2 mph 51 % 0 in
22:50 69.4 °F 60.8 °F 30 in Calm     74 % 0 in
22:52 75.6 °F 56.7 °F 30 in Calm     52 % 0 in
22:57 75.4 °F 56.5 °F 30 in Calm     52 % 0 in
23:00 69.6 °F 61 °F 30 in Calm     74 % 0 in
23:02 75.2 °F 56.5 °F 30 in Calm     52 % 0 in
23:07 75 °F 56.7 °F 30 in Calm     53 % 0 in
23:10 69.4 °F 60.8 °F 30 in Calm   1 mph 74 % 0 in
23:12 74.8 °F 57.6 °F 30 in Calm     55 % 0 in
23:17 74.7 °F 57.4 °F 30 in NNE 1.2 mph   55 % 0 in
23:20 69.4 °F 60.8 °F 30 in Calm     74 % 0 in
23:22 74.5 °F 57.4 °F 30 in NNE 1.2 mph 1.2 mph 55 % 0 in
23:27 74.5 °F 58.3 °F 30 in Calm     57 % 0 in
23:28 74.5 °F 58.3 °F 30 in Calm     57 % 0 in
23:30 69.4 °F 61.2 °F 30 in SSE 1 mph 2 mph 75 % 0 in
23:33 74.3 °F 59 °F 30 in Calm     59 % 0 in
23:38 74.1 °F 59.4 °F 30 in Calm     60 % 0 in
23:40 69.3 °F 61 °F 30 in Calm   1 mph 75 % 0 in
23:48 73.8 °F 58.5 °F 30 in Calm     59 % 0 in
23:50 69.1 °F 60.8 °F 30 in Calm     75 % 0 in
23:53 73.8 °F 59.9 °F 30 in WSW 1.2 mph 1.2 mph 62 % 0 in
23:58 73.6 °F 60.3 °F 30 in Calm     63 % 0 in
Meteo Sesrovires
Elogis d' Weather Underground - 3.5 mb

Guio original per  Jim McMurry - jmcmurry@mwt.net Adaptat per a la plantilla per  Wim van der Kuil - Leuven-Template.eu

Trobareu la nostra informacio del temps tambe a:

Weather Underground

AWEKAS